Time;durP1;ratioP1;P1;durP2;ratioP2;P2;SDS_P1;SDS_P2;PMS_P1;PMS_P2;Temp;Humidity;BMP_temperature;BMP_pressure;BME280_temperature;BME280_humidity;BME280_pressure;Samples;Min_cycle;Max_cycle;Signal;HPM_P1;HPM_P2
2021/03/07 00:00:45;;;;;;;15.17;7.00;;;;;;;-4.19;71.43;100065.22;6338761;22;20419;-79
2021/03/07 00:03:17;;;;;;;14.60;6.40;;;;;;;-4.30;71.92;100071.88;6338137;22;20026;-81
2021/03/07 00:05:44;;;;;;;13.73;7.17;;;;;;;-4.39;72.21;100043.09;6337897;22;20031;-80
2021/03/07 00:08:13;;;;;;;14.57;6.77;;;;;;;-4.27;71.15;100069.09;6338327;22;20342;-80
2021/03/07 00:10:40;;;;;;;13.73;7.37;;;;;;;-4.47;72.45;100024.84;6338966;22;20393;-81
2021/03/07 00:13:15;;;;;;;17.70;6.73;;;;;;;-4.24;72.33;100064.59;6338472;22;20019;-80
2021/03/07 00:15:41;;;;;;;21.93;9.57;;;;;;;-4.29;72.55;100062.13;6337243;22;20089;-80
2021/03/07 00:18:08;;;;;;;22.93;8.27;;;;;;;-4.32;72.77;100041.91;6338295;22;20018;-80
2021/03/07 00:20:34;;;;;;;34.50;11.60;;;;;;;-4.29;72.92;100055.03;6338848;22;20015;-80
2021/03/07 00:23:03;;;;;;;33.67;11.90;;;;;;;-4.39;72.87;100040.44;6338129;22;20025;-80
2021/03/07 00:25:29;;;;;;;28.20;10.43;;;;;;;-4.55;73.32;100028.78;6337184;22;20011;-80
2021/03/07 00:28:01;;;;;;;17.47;7.73;;;;;;;-4.34;73.39;100050.84;6337918;22;20019;-80
2021/03/07 00:30:29;;;;;;;11.80;5.00;;;;;;;-4.15;73.58;100077.44;6338140;22;20343;-81
2021/03/07 00:32:56;;;;;;;8.80;4.50;;;;;;;-4.37;73.58;100069.56;6338919;22;20025;-80
2021/03/07 00:35:29;;;;;;;10.93;5.70;;;;;;;-4.38;72.55;100043.94;6338565;22;20435;-80
2021/03/07 00:37:55;;;;;;;9.50;5.13;;;;;;;-4.25;72.34;100076.97;6337700;22;20019;-80
2021/03/07 00:40:23;;;;;;;12.07;5.50;;;;;;;-4.51;72.10;100054.25;6337877;22;20021;-80
2021/03/07 00:42:58;;;;;;;9.40;5.17;;;;;;;-4.56;72.64;100065.09;6338298;22;20032;-80
2021/03/07 00:45:25;;;;;;;9.07;5.03;;;;;;;-4.59;72.22;100078.47;6336986;22;20018;-80
2021/03/07 00:47:53;;;;;;;6.30;4.57;;;;;;;-4.74;71.78;100060.56;6336883;22;20450;-80
2021/03/07 00:50:22;;;;;;;11.57;5.40;;;;;;;-4.85;72.59;100039.78;6338187;22;20050;-80
2021/03/07 00:52:49;;;;;;;11.63;4.60;;;;;;;-4.81;72.17;100047.56;6337201;22;20029;-80
2021/03/07 00:55:18;;;;;;;11.03;5.40;;;;;;;-4.64;71.53;100045.97;6338011;22;20015;-80
2021/03/07 00:57:45;;;;;;;11.38;4.75;;;;;;;-4.52;71.84;100073.75;6337692;22;20018;-80
2021/03/07 01:00:14;;;;;;;12.30;4.50;;;;;;;-4.77;72.32;100043.00;6338433;22;20018;-80
2021/03/07 01:02:40;;;;;;;9.63;4.13;;;;;;;-4.92;72.95;100043.63;6338498;22;20018;-80
2021/03/07 01:05:27;;;;;;;9.23;4.40;;;;;;;-4.86;73.21;100043.41;6337436;22;20237;-80
2021/03/07 01:07:58;;;;;;;10.70;4.50;;;;;;;-4.80;72.09;100043.97;6336655;22;20023;-80
2021/03/07 01:10:30;;;;;;;8.07;4.10;;;;;;;-4.93;72.61;100028.66;6338482;22;20015;-80
2021/03/07 01:12:57;;;;;;;6.10;3.60;;;;;;;-4.91;72.37;100026.78;6338295;22;20093;-80
2021/03/07 01:15:28;;;;;;;8.63;4.43;;;;;;;-4.67;72.53;100048.75;6337470;22;20021;-80
2021/03/07 01:17:54;;;;;;;7.93;4.13;;;;;;;-4.75;72.12;100042.94;6337847;22;20019;-80
2021/03/07 01:20:20;;;;;;;7.80;4.37;;;;;;;-4.80;72.77;100043.97;6337884;22;20075;-79
2021/03/07 01:22:49;;;;;;;9.07;4.60;;;;;;;-4.89;73.00;100033.78;6338149;22;20022;-80
2021/03/07 01:25:17;;;;;;;4.73;3.83;;;;;;;-4.94;72.62;100022.47;6338482;22;20018;-80
2021/03/07 01:27:43;;;;;;;5.30;4.17;;;;;;;-4.91;72.92;100024.13;6338768;22;20087;-80
2021/03/07 01:30:23;;;;;;;7.00;3.97;;;;;;;-4.88;73.14;100021.34;6337986;22;20014;-79
2021/03/07 01:32:49;;;;;;;8.40;3.83;;;;;;;-4.99;72.97;99998.81;6338756;22;20015;-79
2021/03/07 01:35:17;;;;;;;8.23;4.27;;;;;;;-4.91;73.35;100001.13;6337989;22;20019;-79
2021/03/07 01:37:44;;;;;;;6.57;3.73;;;;;;;-4.82;73.43;99998.09;6338089;22;20026;-80
2021/03/07 01:40:13;;;;;;;6.63;3.67;;;;;;;-4.80;72.73;100000.69;6337631;22;20044;-80
2021/03/07 01:42:43;;;;;;;8.35;4.00;;;;;;;-4.92;72.59;99980.84;6337757;22;20022;-80
2021/03/07 01:45:09;;;;;;;;;;;;;;;-4.85;72.51;99992.94;6338429;22;20093;-80
2021/03/07 01:47:38;;;;;;;5.77;3.27;;;;;;;-5.05;72.87;99988.47;6337821;22;19971;-79
2021/03/07 01:50:05;;;;;;;6.87;3.47;;;;;;;-5.17;72.28;99959.81;6336892;22;20014;-80
2021/03/07 01:52:32;;;;;;;12.60;4.17;;;;;;;-5.11;72.87;99966.66;6338053;22;20015;-79
2021/03/07 01:54:58;;;;;;;8.23;3.97;;;;;;;-5.19;73.57;99962.53;6337885;22;20443;-79
2021/03/07 01:57:27;;;;;;;7.50;4.30;;;;;;;-5.13;73.62;99982.63;6339919;22;20068;-79
2021/03/07 01:59:57;;;;;;;10.13;3.83;;;;;;;-5.27;73.35;99966.44;6339332;22;20094;-79
2021/03/07 02:02:24;;;;;;;7.93;3.77;;;;;;;-5.31;73.57;99948.94;6339787;22;20026;-79
2021/03/07 02:04:51;;;;;;;9.77;3.87;;;;;;;-5.34;73.59;99948.16;6339804;22;20030;-80
2021/03/07 02:07:17;;;;;;;8.30;4.13;;;;;;;-5.36;73.86;99944.72;6339281;22;20512;-80
2021/03/07 02:09:44;;;;;;;9.23;4.20;;;;;;;-5.49;74.71;99938.22;6339790;22;20094;-80
2021/03/07 02:12:11;;;;;;;9.93;4.77;;;;;;;-5.29;74.78;99955.06;6339774;22;20093;-80
2021/03/07 02:14:40;;;;;;;11.13;5.17;;;;;;;-5.49;74.63;99921.44;6339139;22;20379;-80
2021/03/07 02:17:08;;;;;;;7.78;5.10;;;;;;;-5.32;75.07;99963.13;6339421;22;20019;-80
2021/03/07 02:19:39;;;;;;;7.73;4.10;;;;;;;-5.51;74.89;99938.28;6339170;22;20019;-80
2021/03/07 02:22:14;;;;;;;10.17;3.87;;;;;;;-5.44;74.83;99928.25;6340145;22;20068;-79
2021/03/07 02:24:42;;;;;;;9.83;4.50;;;;;;;-5.29;74.83;99949.75;6339945;22;20022;-80
2021/03/07 02:27:08;;;;;;;8.50;4.27;;;;;;;-5.47;74.16;99922.25;6339420;22;20015;-80
2021/03/07 02:29:35;;;;;;;7.77;4.00;;;;;;;-5.71;73.79;99898.50;6339703;22;20519;-80
2021/03/07 02:32:06;;;;;;;8.67;4.20;;;;;;;-5.77;74.14;99912.84;6338978;22;20022;-80
2021/03/07 02:34:35;;;;;;;10.50;3.97;;;;;;;-5.75;74.73;99910.13;6340005;22;20426;-80
2021/03/07 02:37:03;;;;;;;9.80;5.03;;;;;;;-5.84;75.75;99897.28;6340330;22;20021;-80
2021/03/07 02:39:33;;;;;;;9.13;4.83;;;;;;;-5.88;75.53;99891.25;6339818;22;20015;-80
2021/03/07 02:42:04;;;;;;;5.72;4.00;;;;;;;-5.78;75.65;99904.97;6340069;22;20023;-80
2021/03/07 02:44:33;;;;;;;8.70;4.13;;;;;;;-5.85;76.13;99914.97;6340034;22;20015;-79
2021/03/07 02:47:01;;;;;;;8.50;3.85;;;;;;;-6.12;76.33;99896.63;6339746;22;20064;-80
2021/03/07 02:49:28;;;;;;;8.03;4.13;;;;;;;-6.06;76.41;99899.03;6339021;22;20414;-80
2021/03/07 02:51:56;;;;;;;8.90;4.23;;;;;;;-5.95;77.07;99929.50;6340377;22;20015;-79
2021/03/07 02:54:26;;;;;;;6.77;3.90;;;;;;;-5.87;76.43;99919.47;6339741;22;20030;-80
2021/03/07 02:56:54;;;;;;;8.60;4.33;;;;;;;-6.03;76.45;99876.03;6340107;22;20101;-80
2021/03/07 02:59:25;;;;;;;9.17;4.23;;;;;;;-6.03;75.87;99879.53;6339947;22;20332;-79
2021/03/07 03:01:55;;;;;;;9.00;4.73;;;;;;;-6.02;75.74;99883.03;6339611;22;20021;-80
2021/03/07 03:04:23;;;;;;;11.30;4.63;;;;;;;-6.00;75.06;99895.28;6339563;22;20018;-79
2021/03/07 03:06:52;;;;;;;9.37;4.93;;;;;;;-5.97;76.39;99924.28;6339594;22;20019;-80
2021/03/07 03:09:21;;;;;;;7.10;4.57;;;;;;;-6.33;77.69;99886.91;6339730;22;20018;-79
2021/03/07 03:11:48;;;;;;;11.48;5.97;;;;;;;-6.02;77.49;99909.50;6339150;22;20025;-79
2021/03/07 03:14:15;;;;;;;11.73;6.10;;;;;;;-6.33;76.46;99871.03;6339058;22;20089;-79
2021/03/07 03:16:48;;;;;;;8.80;4.40;;;;;;;-6.45;76.69;99894.41;6339472;22;20077;-79
2021/03/07 03:19:15;;;;;;;6.37;4.00;;;;;;;-6.70;77.80;99878.59;6338963;22;20085;-80
2021/03/07 03:21:50;;;;;;;12.97;4.20;;;;;;;-6.68;77.75;99881.22;6337314;22;20026;-80
2021/03/07 03:24:17;;;;;;;8.50;4.03;;;;;;;-6.61;78.35;99870.34;6338458;22;20018;-80
2021/03/07 03:26:44;;;;;;;6.50;3.73;;;;;;;-6.56;77.97;99870.16;6339434;22;20324;-80
2021/03/07 03:29:10;;;;;;;10.53;4.47;;;;;;;-6.37;77.75;99888.81;6338919;22;20026;-79
2021/03/07 03:31:37;;;;;;;7.17;4.03;;;;;;;-6.19;77.58;99892.50;6339702;22;20050;-79
2021/03/07 03:34:05;;;;;;;6.23;3.70;;;;;;;-6.43;76.66;99849.34;6339650;22;20338;-79
2021/03/07 03:36:33;;;;;;;7.80;4.20;;;;;;;-6.38;77.46;99859.75;6339437;22;20362;-79
2021/03/07 03:39:03;;;;;;;11.27;4.60;;;;;;;-6.09;76.13;99863.91;6339060;22;20022;-79
2021/03/07 03:41:33;;;;;;;7.93;4.07;;;;;;;-6.27;76.23;99853.13;6339324;22;20023;-79
2021/03/07 03:44:03;;;;;;;13.37;4.77;;;;;;;-6.28;76.33;99863.78;6339309;22;20072;-79
2021/03/07 03:46:32;;;;;;;;;;;;;;;-6.18;76.57;99878.38;6339633;22;20080;-79
2021/03/07 03:49:03;;;;;;;5.93;3.55;;;;;;;-6.21;76.27;99883.78;6339864;22;20249;-80
2021/03/07 03:51:35;;;;;;;8.87;4.13;;;;;;;-6.32;76.43;99873.63;6339248;22;20068;-79
2021/03/07 03:54:03;;;;;;;7.33;4.27;;;;;;;-6.43;76.66;99855.53;6339497;22;20019;-79
2021/03/07 03:56:47;;;;;;;7.10;4.13;;;;;;;-6.25;76.84;99887.47;6339067;22;20459;-79
2021/03/07 03:59:15;;;;;;;8.40;4.43;;;;;;;-6.38;76.08;99879.16;6338942;22;20022;-79
2021/03/07 04:01:43;;;;;;;6.70;3.90;;;;;;;-6.29;76.92;99883.22;6338783;22;20023;-79
2021/03/07 04:04:10;;;;;;;9.83;4.70;;;;;;;-6.43;77.58;99865.22;6338605;22;20042;-79
2021/03/07 04:06:38;;;;;;;10.00;4.03;;;;;;;-6.46;76.99;99857.41;6339461;22;20057;-79
2021/03/07 04:09:05;;;;;;;6.37;3.37;;;;;;;-6.41;76.40;99869.56;6339800;22;20096;-79
2021/03/07 04:11:33;;;;;;;8.40;4.07;;;;;;;-6.38;76.92;99884.47;6339209;22;20019;-80
2021/03/07 04:14:00;;;;;;;6.60;3.30;;;;;;;-6.53;77.01;99866.50;6339156;22;20101;-79
2021/03/07 04:16:28;;;;;;;6.93;3.67;;;;;;;-6.66;77.18;99863.50;6339282;22;20019;-79
2021/03/07 04:18:56;;;;;;;7.67;4.17;;;;;;;-6.57;76.53;99865.78;6338431;22;20014;-79
2021/03/07 04:21:24;;;;;;;5.60;4.40;;;;;;;-6.69;76.32;99858.31;6339096;22;20014;-79
2021/03/07 04:23:51;;;;;;;7.77;4.13;;;;;;;-6.79;76.93;99845.47;6339175;22;20034;-79
2021/03/07 04:26:18;;;;;;;6.43;4.10;;;;;;;-6.84;77.60;99850.03;6338971;22;20482;-79
2021/03/07 04:28:45;;;;;;;8.03;3.47;;;;;;;-6.97;77.64;99831.16;6339165;22;20019;-79
2021/03/07 04:31:12;;;;;;;4.90;3.67;;;;;;;-6.98;77.65;99845.28;6339275;22;20466;-79
2021/03/07 04:33:39;;;;;;;8.60;4.40;;;;;;;-6.91;77.47;99843.25;6339058;22;20022;-79
2021/03/07 04:36:06;;;;;;;6.30;3.93;;;;;;;-6.86;77.56;99851.03;6338839;22;20018;-79
2021/03/07 04:38:33;;;;;;;9.07;4.33;;;;;;;-6.80;77.16;99856.94;6338865;22;20019;-79
2021/03/07 04:41:01;;;;;;;8.27;3.47;;;;;;;-6.99;77.54;99832.13;6339170;22;20091;-79
2021/03/07 04:43:29;;;;;;;8.83;3.93;;;;;;;-6.89;78.07;99832.63;6339010;22;20022;-78
2021/03/07 04:45:55;;;;;;;8.33;4.03;;;;;;;-6.74;77.24;99850.56;6338430;22;20022;-79
2021/03/07 04:48:22;;;;;;;9.93;4.23;;;;;;;-6.83;77.27;99829.78;6339251;22;20379;-79
2021/03/07 04:50:48;;;;;;;7.30;4.10;;;;;;;-7.02;77.30;99811.09;6338951;22;20355;-79
2021/03/07 04:53:14;;;;;;;14.03;4.23;;;;;;;-6.94;77.49;99831.03;6339022;22;20023;-79
2021/03/07 04:55:40;;;;;;;7.63;4.20;;;;;;;-6.97;77.85;99833.78;6338586;22;20015;-79
2021/03/07 04:58:07;;;;;;;7.03;3.87;;;;;;;-6.97;78.76;99827.63;6339399;22;20026;-79
2021/03/07 05:00:34;;;;;;;6.03;3.80;;;;;;;-6.88;77.93;99824.66;6338066;22;20447;-79
2021/03/07 05:03:00;;;;;;;10.17;4.73;;;;;;;-6.95;79.04;99826.66;6337877;22;20023;-79
2021/03/07 05:05:26;;;;;;;9.27;4.50;;;;;;;-6.84;78.79;99850.03;6337472;22;20087;-79
2021/03/07 05:07:54;;;;;;;10.30;4.63;;;;;;;-6.94;78.02;99825.75;6337402;22;20010;-79
2021/03/07 05:10:21;;;;;;;10.00;5.17;;;;;;;-6.78;78.23;99841.03;6336306;22;20038;-79
2021/03/07 05:12:47;;;;;;;8.80;4.50;;;;;;;-6.92;77.28;99833.63;6336185;22;20073;-79
2021/03/07 05:15:15;;;;;;;12.77;5.17;;;;;;;-6.95;77.03;99839.03;6336180;22;20071;-79
2021/03/07 05:17:41;;;;;;;10.80;4.20;;;;;;;-6.96;76.80;99835.50;6337183;22;20015;-80
2021/03/07 05:20:09;;;;;;;8.93;4.20;;;;;;;-7.13;77.83;99803.56;6338011;22;20022;-79
2021/03/07 05:22:35;;;;;;;11.20;5.27;;;;;;;-7.04;77.14;99834.09;6338100;22;20015;-79
2021/03/07 05:25:01;;;;;;;9.40;4.23;;;;;;;-7.13;77.16;99828.22;6336369;22;20010;-79
2021/03/07 05:27:27;;;;;;;11.73;5.27;;;;;;;-7.18;77.22;99808.16;6336757;22;20025;-80
2021/03/07 05:29:54;;;;;;;10.37;4.77;;;;;;;-7.18;77.58;99816.97;6336263;22;20512;-79
2021/03/07 05:32:21;;;;;;;10.03;4.10;;;;;;;-7.08;77.61;99837.75;6336387;22;20447;-79
2021/03/07 05:34:47;;;;;;;13.83;4.67;;;;;;;-7.25;77.90;99801.41;6335930;22;20027;-79
2021/03/07 05:37:14;;;;;;;8.63;4.33;;;;;;;-7.12;77.72;99818.50;6336161;22;20018;-79
2021/03/07 05:39:40;;;;;;;7.97;4.50;;;;;;;-7.26;78.56;99800.50;6336924;22;20128;-79
2021/03/07 05:42:09;;;;;;;9.63;4.70;;;;;;;-7.17;78.71;99828.38;6338819;22;20072;-79
2021/03/07 05:44:36;;;;;;;8.63;4.50;;;;;;;-7.20;78.29;99824.06;6338698;22;20058;-79
2021/03/07 05:47:02;;;;;;;8.37;4.10;;;;;;;-7.09;78.14;99833.38;6337633;22;20553;-79
2021/03/07 05:49:29;;;;;;;12.70;5.07;;;;;;;-7.21;78.65;99826.75;6338684;22;20023;-79
2021/03/07 05:51:56;;;;;;;12.50;4.27;;;;;;;-7.23;78.09;99810.97;6337643;22;20011;-79
2021/03/07 05:54:23;;;;;;;7.80;4.07;;;;;;;-7.26;78.54;99784.66;6338764;22;20022;-79
2021/03/07 05:56:50;;;;;;;6.83;3.90;;;;;;;-7.08;77.61;99812.19;6338313;22;20496;-78
2021/03/07 05:59:17;;;;;;;7.30;3.77;;;;;;;-7.23;77.38;99799.53;6338388;22;20378;-79
2021/03/07 06:01:44;;;;;;;5.93;3.33;;;;;;;-7.21;78.13;99808.25;6339045;22;20097;-79
2021/03/07 06:04:10;;;;;;;8.13;4.57;;;;;;;-7.40;78.09;99776.41;6338124;22;20019;-79
2021/03/07 06:06:38;;;;;;;7.97;4.30;;;;;;;-7.25;78.60;99801.41;6338142;22;20038;-79
2021/03/07 06:09:26;;;;;;;9.80;3.77;;;;;;;-7.44;79.16;99764.22;6338626;22;20098;-79
2021/03/07 06:11:53;;;;;;;10.02;4.30;;;;;;;-7.35;78.94;99771.78;6338902;22;20023;-79
2021/03/07 06:14:22;;;;;;;5.33;3.23;;;;;;;-7.37;78.57;99776.28;6338109;22;20014;-79
2021/03/07 06:16:59;;;;;;;7.10;4.30;;;;;;;-7.22;79.07;99788.91;6337884;22;20015;-79
2021/03/07 06:19:25;;;;;;;10.23;3.90;;;;;;;-7.12;79.39;99794.69;6337334;22;20455;-79
2021/03/07 06:21:52;;;;;;;8.10;4.97;;;;;;;-7.20;78.91;99787.06;6337762;22;20030;-79
2021/03/07 06:24:36;;;;;;;9.73;4.20;;;;;;;-7.16;78.88;99780.75;6337810;22;20057;-79
2021/03/07 06:27:07;;;;;;;7.60;4.03;;;;;;;-7.03;78.10;99770.59;6337946;22;20470;-79
2021/03/07 06:29:33;;;;;;;5.63;3.80;;;;;;;-6.94;77.51;99762.31;6337882;22;20015;-79
2021/03/07 06:32:00;;;;;;;6.10;3.90;;;;;;;-6.79;77.05;99796.97;6338225;22;20015;-79
2021/03/07 06:34:26;;;;;;;6.20;3.60;;;;;;;-7.03;77.43;99767.94;6337749;22;20122;-79
2021/03/07 06:37:03;;;;;;;7.70;4.37;;;;;;;-6.86;77.67;99791.09;6338063;22;20010;-78
2021/03/07 06:39:30;;;;;;;9.37;4.07;;;;;;;-6.82;77.22;99760.97;6338134;22;20339;-79
2021/03/07 06:42:03;;;;;;;9.97;4.73;;;;;;;-6.46;77.38;99778.06;6339071;22;20053;-79
2021/03/07 06:44:29;;;;;;;11.27;4.77;;;;;;;-6.29;77.02;99799.41;6339631;22;20758;-79
2021/03/07 06:47:07;;;;;;;7.67;4.27;;;;;;;-6.11;77.30;99784.56;6333174;22;20463;-79
2021/03/07 06:49:33;;;;;;;7.27;4.00;;;;;;;-6.13;77.16;99769.66;6339507;22;20014;-79
2021/03/07 06:52:12;;;;;;;7.40;4.13;;;;;;;-6.17;77.61;99778.63;6339713;22;20011;-78
2021/03/07 06:54:47;;;;;;;7.47;4.32;;;;;;;-6.06;77.04;99790.50;6338262;22;20045;-78
2021/03/07 06:57:28;;;;;;;14.13;4.43;;;;;;;-6.10;77.08;99766.88;6339221;22;20014;-79
2021/03/07 06:59:54;;;;;;;13.53;5.17;;;;;;;-6.00;77.42;99757.63;6338068;22;20102;-80
2021/03/07 07:02:21;;;;;;;15.03;5.00;;;;;;;-5.74;76.83;99758.25;6338404;22;20014;-80
2021/03/07 07:04:47;;;;;;;9.70;5.40;;;;;;;-5.74;76.70;99764.38;6338055;22;20018;-80
2021/03/07 07:07:16;;;;;;;12.63;5.70;;;;;;;-5.58;76.57;99755.78;6339854;22;20335;-79
2021/03/07 07:09:44;;;;;;;14.02;7.10;;;;;;;-5.43;76.12;99756.88;6339472;22;20061;-80
2021/03/07 07:12:20;;;;;;;375.77;119.00;;;;;;;-5.40;75.75;99748.81;6339098;22;20021;-79
2021/03/07 07:14:46;;;;;;;104.67;35.30;;;;;;;-5.23;75.64;99780.69;6339178;22;20023;-79
2021/03/07 07:17:14;;;;;;;21.80;9.17;;;;;;;-5.13;75.99;99801.47;6339183;22;20014;-80
2021/03/07 07:19:42;;;;;;;17.20;6.03;;;;;;;-5.06;76.00;99777.28;6338939;22;20015;-80
2021/03/07 07:22:11;;;;;;;11.43;5.87;;;;;;;-5.03;75.49;99777.13;6339452;22;20019;-80
2021/03/07 07:24:39;;;;;;;10.53;5.77;;;;;;;-4.87;75.57;99782.56;6339052;22;20041;-80
2021/03/07 07:27:05;;;;;;;9.53;5.27;;;;;;;-4.82;75.47;99771.75;6339223;22;20019;-80
2021/03/07 07:29:33;;;;;;;10.70;5.67;;;;;;;-4.79;75.08;99758.31;6338784;22;20026;-79
2021/03/07 07:32:04;;;;;;;11.30;6.10;;;;;;;-4.61;74.79;99753.94;6338246;22;20094;-79
2021/03/07 07:34:34;;;;;;;10.30;5.30;;;;;;;-4.27;75.21;99771.72;6338828;22;20023;-80
2021/03/07 07:37:19;;;;;;;8.95;5.00;;;;;;;-4.15;74.24;99764.09;6339105;22;20011;-80
2021/03/07 07:39:51;;;;;;;12.57;6.10;;;;;;;-3.95;73.48;99765.72;6338918;22;20019;-81
2021/03/07 07:42:19;;;;;;;10.40;5.00;;;;;;;-3.91;73.45;99751.38;6339231;22;20018;-80
2021/03/07 07:44:46;;;;;;;9.77;5.37;;;;;;;-3.82;72.63;99736.75;6339066;22;20338;-81
2021/03/07 07:47:12;;;;;;;9.23;4.70;;;;;;;-3.76;71.46;99739.94;6338004;22;20428;-81
2021/03/07 07:49:41;;;;;;;9.63;4.70;;;;;;;-3.53;71.30;99747.66;6339014;22;20045;-81
2021/03/07 07:52:47;;;;;;;7.68;3.92;;;;;;;-3.26;69.70;99774.56;6338823;22;20327;-81
2021/03/07 07:55:15;;;;;;;7.70;4.03;;;;;;;-3.17;70.39;99763.44;6338544;22;20020;-80
2021/03/07 07:57:45;;;;;;;10.43;5.27;;;;;;;-3.04;68.91;99784.88;6338787;22;20022;-81
2021/03/07 08:00:13;;;;;;;12.90;5.67;;;;;;;-3.10;67.46;99758.63;6338055;22;20025;-81
2021/03/07 08:02:50;;;;;;;8.47;4.33;;;;;;;-2.80;66.54;99779.16;6339406;22;20639;-81
2021/03/07 08:05:42;;;;;;;7.37;4.27;;;;;;;-2.68;67.08;99781.13;6337863;22;20446;-81
2021/03/07 08:08:10;;;;;;;8.10;5.13;;;;;;;-2.74;67.15;99781.50;6338958;22;20018;-81
2021/03/07 08:10:51;;;;;;;15.17;6.10;;;;;;;-2.61;66.98;99765.69;6338822;22;20019;-81
2021/03/07 08:13:59;;;;;;;8.53;4.60;;;;;;;-2.63;66.75;99736.50;6338290;22;20018;-81
2021/03/07 08:16:43;;;;;;;6.10;4.10;;;;;;;-2.34;66.20;99766.78;6335315;22;20373;-81
2021/03/07 08:19:11;;;;;;;11.73;4.77;;;;;;;-2.14;64.89;99754.13;6338439;22;20011;-81
2021/03/07 08:21:57;;;;;;;12.23;5.77;;;;;;;-2.21;64.27;99744.78;6338231;22;20023;-82
2021/03/07 08:24:23;;;;;;;14.83;6.07;;;;;;;-2.13;65.28;99739.84;6338522;22;20050;-81
2021/03/07 08:27:00;;;;;;;10.73;5.63;;;;;;;-2.08;65.64;99711.13;6338549;22;20015;-81
2021/03/07 08:29:44;;;;;;;11.77;4.57;;;;;;;-2.09;65.56;99725.41;6338156;22;20451;-81
2021/03/07 08:32:44;;;;;;;6.43;4.90;;;;;;;-1.87;64.72;99730.31;6337526;22;20025;-81
2021/03/07 08:35:25;;;;;;;;;;;;;;;-1.71;64.55;99745.41;6243239;23;20020;-81
2021/03/07 08:38:16;;;;;;;8.73;4.83;;;;;;;-1.74;63.91;99708.25;6242777;23;20263;-81
2021/03/07 08:40:43;;;;;;;7.20;4.23;;;;;;;-1.47;64.15;99743.88;6290291;22;20029;-81
2021/03/07 08:43:52;;;;;;;9.50;5.57;;;;;;;-1.33;62.85;99735.03;6338545;22;20459;-82
2021/03/07 08:46:23;;;;;;;9.43;5.05;;;;;;;-1.29;62.52;99720.56;6338060;22;20094;-82
2021/03/07 08:48:51;;;;;;;9.63;4.33;;;;;;;-1.13;63.70;99733.81;6339546;22;20048;-82
2021/03/07 08:51:19;;;;;;;15.73;8.27;;;;;;;-1.24;64.04;99698.91;6339180;22;20119;-82
2021/03/07 08:53:46;;;;;;;21.50;13.80;;;;;;;-0.97;63.31;99714.16;6338526;22;20084;-82
2021/03/07 08:56:14;;;;;;;30.53;22.27;;;;;;;-0.74;63.47;99726.88;6337660;22;20068;-83
2021/03/07 08:58:46;;;;;;;10.37;8.13;;;;;;;-0.65;63.25;99716.53;6337812;22;20026;-82
2021/03/07 09:01:13;;;;;;;9.47;6.27;;;;;;;-0.36;62.55;99728.84;6338644;22;20335;-82
2021/03/07 09:03:40;;;;;;;7.20;4.23;;;;;;;-0.38;61.19;99696.06;6338222;22;20098;-82
2021/03/07 09:06:11;;;;;;;8.90;4.70;;;;;;;-0.22;61.21;99697.69;6337676;22;20019;-82
2021/03/07 09:08:37;;;;;;;9.17;4.50;;;;;;;0.03;60.79;99699.56;6337840;22;20026;-83
2021/03/07 09:11:09;;;;;;;13.57;5.30;;;;;;;0.20;60.87;99709.09;6339057;22;20023;-83
2021/03/07 09:13:47;;;;;;;8.53;4.93;;;;;;;0.27;60.92;99707.72;6338375;22;20019;-83
2021/03/07 09:16:13;;;;;;;8.03;4.67;;;;;;;0.38;60.96;99703.41;6336815;22;20022;-83
2021/03/07 09:18:40;;;;;;;11.63;5.03;;;;;;;0.58;59.35;99699.38;6337739;22;20022;-83
2021/03/07 09:21:09;;;;;;;9.50;4.43;;;;;;;0.43;58.97;99674.53;6338167;22;20137;-83
2021/03/07 09:23:36;;;;;;;8.50;5.17;;;;;;;0.51;59.60;99675.72;6338297;22;20050;-83
2021/03/07 09:26:06;;;;;;;7.90;4.40;;;;;;;0.69;59.37;99680.72;6337114;22;20019;-83
2021/03/07 09:28:40;;;;;;;6.75;4.40;;;;;;;0.57;59.52;99655.69;6337235;22;20014;-83
2021/03/07 09:31:10;;;;;;;5.63;4.03;;;;;;;0.84;58.68;99686.81;6336380;22;20330;-85
2021/03/07 09:33:36;;;;;;;8.77;4.13;;;;;;;0.72;58.58;99663.59;6338037;22;20018;-84
2021/03/07 09:36:09;;;;;;;7.47;4.60;;;;;;;0.77;58.46;99650.72;6337855;22;20011;-84
2021/03/07 09:38:48;;;;;;;13.33;4.23;;;;;;;1.08;58.26;99668.09;6338613;22;20343;-83
2021/03/07 09:41:17;;;;;;;11.10;4.20;;;;;;;1.18;57.38;99647.72;6335362;22;20068;-84
2021/03/07 09:43:46;;;;;;;7.57;4.50;;;;;;;1.33;57.41;99658.28;6337910;22;20037;-84
2021/03/07 09:46:15;;;;;;;7.87;3.77;;;;;;;1.40;57.14;99654.16;6338139;22;20041;-83
2021/03/07 09:48:41;;;;;;;8.47;4.33;;;;;;;1.55;56.76;99662.88;6337117;22;20094;-83
2021/03/07 09:51:15;;;;;;;6.37;4.43;;;;;;;1.56;57.19;99657.41;6337836;22;20045;-84
2021/03/07 09:53:42;;;;;;;6.27;4.33;;;;;;;1.47;57.06;99615.22;6338104;22;20011;-84
2021/03/07 09:56:22;;;;;;;6.53;4.33;;;;;;;1.69;57.87;99630.53;6338295;22;20010;-84
2021/03/07 09:58:48;;;;;;;9.32;4.88;;;;;;;1.83;56.30;99618.75;6337163;22;20014;-84
2021/03/07 10:01:15;;;;;;;5.30;3.70;;;;;;;1.80;56.04;99612.78;6338193;22;20086;-84
2021/03/07 10:03:41;;;;;;;8.33;4.23;;;;;;;1.95;55.89;99635.72;6338727;22;20168;-84
2021/03/07 10:06:10;;;;;;;7.93;4.63;;;;;;;1.97;55.86;99612.31;6337540;22;20019;-84
2021/03/07 10:08:39;;;;;;;6.97;4.40;;;;;;;2.25;55.60;99623.59;6337582;22;20017;-84
2021/03/07 10:11:21;;;;;;;7.17;4.40;;;;;;;2.19;55.39;99613.34;6337992;22;20102;-84
2021/03/07 10:13:59;;;;;;;7.97;5.25;;;;;;;2.50;56.32;99635.06;6336868;22;20053;-84
2021/03/07 10:16:27;;;;;;;9.73;5.47;;;;;;;2.58;55.89;99636.16;6335885;22;20018;-84
2021/03/07 10:19:12;;;;;;;7.47;5.13;;;;;;;2.61;54.65;99625.19;6338893;22;20021;-84
2021/03/07 10:21:49;;;;;;;8.68;4.45;;;;;;;2.62;56.01;99601.84;6340047;22;20023;-86
2021/03/07 10:24:22;;;;;;;9.02;4.75;;;;;;;2.89;54.86;99635.53;6339131;22;20019;-85
2021/03/07 10:26:51;;;;;;;9.27;5.53;;;;;;;2.98;56.28;99632.97;6340376;22;20015;-85
2021/03/07 10:29:40;;;;;;;9.88;6.40;;;;;;;3.04;56.88;99630.75;6339208;22;20042;-84
2021/03/07 10:32:17;;;;;;;11.90;5.60;;;;;;;3.15;54.53;99626.19;6336481;22;20021;-83
2021/03/07 10:34:45;;;;;;;12.02;6.85;;;;;;;3.26;55.26;99621.78;6338482;22;20515;-83
2021/03/07 10:37:37;;;;;;;11.00;6.50;;;;;;;3.34;53.92;99605.84;6338152;22;20334;-83
2021/03/07 10:40:07;;;;;;;11.18;5.75;;;;;;;3.35;54.37;99603.03;6339796;22;20054;-84
2021/03/07 10:42:37;;;;;;;9.00;5.55;;;;;;;3.54;53.57;99606.91;6339130;22;20015;-84
2021/03/07 10:45:19;;;;;;;9.52;6.35;;;;;;;3.76;52.74;99618.50;6338827;22;20439;-83
2021/03/07 10:47:58;;;;;;;11.63;5.75;;;;;;;3.83;52.75;99622.41;6339029;22;20085;-84
2021/03/07 10:50:25;;;;;;;12.93;6.25;;;;;;;3.95;52.96;99605.19;6339091;22;20018;-84
2021/03/07 10:52:55;;;;;;;10.25;6.15;;;;;;;3.97;52.53;99589.78;6339533;22;20075;-85
2021/03/07 10:55:23;;;;;;;11.85;6.63;;;;;;;4.10;53.19;99613.78;6339048;22;20042;-85
2021/03/07 10:57:53;;;;;;;12.02;6.57;;;;;;;4.29;51.68;99612.19;6339345;22;20097;-85
2021/03/07 11:00:43;;;;;;;10.03;6.30;;;;;;;4.37;52.08;99607.84;6338005;22;20029;-85
2021/03/07 11:03:16;;;;;;;12.38;6.78;;;;;;;4.43;52.02;99584.94;6340159;22;20253;-85
2021/03/07 11:05:45;;;;;;;9.00;5.45;;;;;;;4.54;51.22;99576.75;6338895;22;20022;-85
2021/03/07 11:08:12;;;;;;;13.70;6.38;;;;;;;4.86;50.48;99591.84;6339381;22;20447;-85
2021/03/07 11:10:43;;;;;;;10.25;6.47;;;;;;;4.81;50.18;99599.50;6340060;22;20022;-85
2021/03/07 11:13:10;;;;;;;9.60;6.07;;;;;;;4.92;49.82;99598.53;6339353;22;20101;-85
2021/03/07 11:15:39;;;;;;;9.93;6.07;;;;;;;4.92;49.63;99568.91;6339337;22;20035;-86
2021/03/07 11:18:26;;;;;;;11.02;7.53;;;;;;;5.20;49.81;99572.66;6338563;22;20094;-85
2021/03/07 11:21:09;;;;;;;12.02;6.07;;;;;;;5.35;48.86;99591.13;6339914;22;20010;-86
2021/03/07 11:23:43;;;;;;;11.98;6.78;;;;;;;5.09;48.67;99560.16;6339325;22;20019;-85
2021/03/07 11:26:15;;;;;;;12.05;7.10;;;;;;;5.37;48.51;99572.94;6338965;22;20396;-86
2021/03/07 11:28:54;;;;;;;7.13;5.10;;;;;;;5.60;48.89;99595.06;6339262;22;20434;-85
2021/03/07 11:31:24;;;;;;;10.30;6.38;;;;;;;5.53;48.78;99554.34;6339520;22;20019;-85
2021/03/07 11:33:51;;;;;;;10.70;6.20;;;;;;;5.19;49.50;99546.66;6338329;22;20018;-84
2021/03/07 11:36:18;;;;;;;11.35;6.82;;;;;;;5.40;49.51;99570.81;6339218;22;20023;-85
2021/03/07 11:38:47;;;;;;;12.85;6.82;;;;;;;5.58;48.30;99562.84;6339254;22;20082;-84
2021/03/07 11:41:19;;;;;;;12.13;6.87;;;;;;;5.65;48.38;99545.09;6339267;22;20014;-85
2021/03/07 11:43:46;;;;;;;9.13;5.72;;;;;;;5.68;47.73;99536.72;6339355;22;20035;-85
2021/03/07 11:46:14;;;;;;;12.13;6.32;;;;;;;6.04;46.92;99560.41;6339315;22;20015;-86